TimeCDT,TemperatureF,Dew PointF,Humidity,Sea Level PressureIn,VisibilityMPH,Wind Direction,Wind SpeedMPH,Gust SpeedMPH,PrecipitationIn,Events,Conditions,WindDirDegrees,DateUTC
12:55 AM,32.0,21.2,64,30.19,10.0,WNW,23.0,29.9,N/A,,Overcast,300,2012-10-26 05:55:00
1:15 AM,32.0,21.2,64,30.19,10.0,WNW,21.9,29.9,N/A,,Mostly Cloudy,300,2012-10-26 06:15:00
1:35 AM,32.0,21.2,64,30.19,10.0,WNW,17.3,27.6,N/A,,Overcast,300,2012-10-26 06:35:00
1:55 AM,32.0,19.4,60,30.20,10.0,NW,21.9,27.6,N/A,,Overcast,310,2012-10-26 06:55:00
2:15 AM,32.0,19.4,60,30.20,10.0,WNW,19.6,28.8,N/A,,Overcast,300,2012-10-26 07:15:00
2:35 AM,32.0,19.4,60,30.20,10.0,WNW,19.6,26.5,N/A,,Mostly Cloudy,300,2012-10-26 07:35:00
2:55 AM,32.0,19.4,60,30.21,10.0,WNW,18.4,27.6,N/A,,Mostly Cloudy,300,2012-10-26 07:55:00
3:15 AM,32.0,19.4,60,30.21,10.0,WNW,18.4,27.6,N/A,,Mostly Cloudy,300,2012-10-26 08:15:00
3:35 AM,32.0,19.4,60,30.22,10.0,WNW,17.3,25.3,N/A,,Overcast,300,2012-10-26 08:35:00
3:55 AM,32.0,19.4,60,30.22,10.0,WNW,19.6,31.1,N/A,,Overcast,300,2012-10-26 08:55:00
4:15 AM,32.0,17.6,55,30.22,10.0,WNW,20.7,32.2,N/A,,Overcast,300,2012-10-26 09:15:00
4:35 AM,32.0,17.6,55,30.22,10.0,WNW,18.4,27.6,N/A,,Overcast,300,2012-10-26 09:35:00
4:55 AM,32.0,17.6,55,30.22,10.0,WNW,16.1,24.2,N/A,,Overcast,290,2012-10-26 09:55:00
5:35 AM,30.2,19.4,64,30.23,10.0,WNW,23.0,32.2,N/A,,Overcast,300,2012-10-26 10:35:00
5:55 AM,30.2,21.2,69,30.24,10.0,WNW,18.4,29.9,N/A,,Overcast,300,2012-10-26 10:55:00
6:15 AM,28.4,19.4,69,30.24,10.0,NW,21.9,29.9,N/A,,Mostly Cloudy,310,2012-10-26 11:15:00
6:35 AM,28.4,23.0,80,30.24,10.0,WNW,16.1,-,N/A,,Overcast,300,2012-10-26 11:35:00
6:55 AM,28.4,23.0,80,30.24,10.0,WNW,18.4,23.0,N/A,,Overcast,300,2012-10-26 11:55:00
7:15 AM,28.4,23.0,80,30.25,10.0,WNW,23.0,29.9,N/A,,Overcast,300,2012-10-26 12:15:00
7:35 AM,28.4,21.2,74,30.25,10.0,WNW,17.3,-,N/A,,Overcast,290,2012-10-26 12:35:00
7:55 AM,26.6,19.4,74,30.25,10.0,WNW,13.8,24.2,N/A,,Scattered Clouds,300,2012-10-26 12:55:00
8:15 AM,26.6,21.2,80,30.26,10.0,WNW,12.7,-,N/A,,Mostly Cloudy,290,2012-10-26 13:15:00
8:35 AM,26.6,21.2,80,30.27,10.0,WNW,15.0,23.0,N/A,,Mostly Cloudy,290,2012-10-26 13:35:00
8:55 AM,26.6,21.2,80,30.27,10.0,WNW,13.8,-,N/A,,Partly Cloudy,290,2012-10-26 13:55:00
9:15 AM,26.6,19.4,74,30.28,10.0,WNW,17.3,-,N/A,,Clear,290,2012-10-26 14:15:00
9:35 AM,26.6,19.4,74,30.29,10.0,WNW,15.0,19.6,N/A,,Clear,300,2012-10-26 14:35:00
10:15 AM,28.4,19.4,69,30.30,10.0,WNW,20.7,24.2,N/A,,Clear,300,2012-10-26 15:15:00
10:35 AM,30.2,19.4,64,30.30,10.0,WNW,21.9,31.1,N/A,,Clear,300,2012-10-26 15:35:00
10:55 AM,32.0,17.6,55,30.30,10.0,WNW,21.9,27.6,N/A,,Partly Cloudy,300,2012-10-26 15:55:00
11:15 AM,32.0,17.6,55,30.29,10.0,NW,25.3,35.7,N/A,,Mostly Cloudy,310,2012-10-26 16:15:00
11:35 AM,32.0,19.4,60,30.30,10.0,WNW,19.6,26.5,N/A,,Overcast,300,2012-10-26 16:35:00
11:55 AM,32.0,19.4,60,30.30,10.0,WNW,16.1,24.2,N/A,,Overcast,300,2012-10-26 16:55:00
12:15 PM,32.0,19.4,60,30.29,10.0,WNW,18.4,-,N/A,,Mostly Cloudy,300,2012-10-26 17:15:00
12:35 PM,32.0,19.4,60,30.29,10.0,NW,20.7,25.3,N/A,,Overcast,320,2012-10-26 17:35:00
12:55 PM,32.0,19.4,60,30.28,10.0,NW,18.4,25.3,N/A,,Overcast,310,2012-10-26 17:55:00
1:15 PM,32.0,19.4,60,30.28,10.0,WNW,16.1,24.2,N/A,,Overcast,290,2012-10-26 18:15:00
1:35 PM,32.0,19.4,60,30.27,10.0,NW,20.7,25.3,N/A,,Overcast,310,2012-10-26 18:35:00
1:55 PM,32.0,17.6,55,30.27,10.0,WNW,18.4,25.3,N/A,,Mostly Cloudy,300,2012-10-26 18:55:00
2:15 PM,30.2,23.0,75,30.27,5.0,WNW,11.5,29.9,N/A,,Mostly Cloudy,290,2012-10-26 19:15:00
2:35 PM,32.0,19.4,60,30.26,10.0,WNW,13.8,20.7,N/A,,Overcast,290,2012-10-26 19:35:00
2:55 PM,32.0,21.2,64,30.26,10.0,West,12.7,18.4,N/A,,Overcast,280,2012-10-26 19:55:00
3:15 PM,32.0,19.4,60,30.25,10.0,West,15.0,26.5,N/A,,Overcast,280,2012-10-26 20:15:00
3:35 PM,30.2,26.6,86,30.26,3.0,NW,17.3,23.0,0.01,Snow,Light Snow,310,2012-10-26 20:35:00
3:55 PM,30.2,24.8,80,30.25,10.0,WNW,11.5,16.1,0.02,,Overcast,290,2012-10-26 20:55:00
4:15 PM,32.0,23.0,69,30.25,10.0,West,24.2,31.1,N/A,,Overcast,280,2012-10-26 21:15:00
4:35 PM,28.4,24.8,86,30.25,5.0,WNW,13.8,-,N/A,Snow,Light Snow,290,2012-10-26 21:35:00
4:55 PM,30.2,24.8,80,30.25,10.0,WNW,12.7,-,N/A,,Overcast,300,2012-10-26 21:55:00
5:15 PM,30.2,24.8,80,30.25,10.0,NW,11.5,-,N/A,,Overcast,310,2012-10-26 22:15:00
5:35 PM,30.2,24.8,80,30.25,10.0,WNW,10.4,-,N/A,,Overcast,290,2012-10-26 22:35:00
5:55 PM,30.2,24.8,80,30.25,2.5,WNW,12.7,-,N/A,Snow,Light Snow,290,2012-10-26 22:55:00
6:15 PM,28.4,26.6,93,30.25,10.0,West,8.1,-,N/A,,Mostly Cloudy,270,2012-10-26 23:15:00
6:35 PM,28.4,24.8,86,30.25,10.0,West,10.4,-,N/A,,Overcast,270,2012-10-26 23:35:00
6:55 PM,28.4,24.8,86,30.25,10.0,West,8.1,-,N/A,,Overcast,280,2012-10-26 23:55:00
7:15 PM,28.4,23.0,80,30.25,10.0,West,8.1,-,N/A,,Overcast,280,2012-10-27 00:15:00
7:35 PM,28.4,23.0,80,30.26,10.0,West,6.9,-,N/A,,Overcast,270,2012-10-27 00:35:00
7:55 PM,28.4,23.0,80,30.26,10.0,West,5.8,-,N/A,,Overcast,260,2012-10-27 00:55:00
8:15 PM,26.6,24.8,93,30.26,10.0,West,5.8,-,N/A,,Overcast,260,2012-10-27 01:15:00
8:35 PM,26.6,24.8,93,30.26,10.0,West,5.8,-,N/A,,Overcast,260,2012-10-27 01:35:00
8:55 PM,26.6,24.8,93,30.26,10.0,West,5.8,-,N/A,,Overcast,270,2012-10-27 01:55:00
9:15 PM,26.6,24.8,93,30.25,10.0,WNW,3.5,-,N/A,,Overcast,290,2012-10-27 02:15:00
9:35 PM,26.6,24.8,93,30.25,10.0,WNW,3.5,-,N/A,,Overcast,300,2012-10-27 02:35:00
9:55 PM,26.6,24.8,93,30.26,10.0,WNW,4.6,-,N/A,,Overcast,300,2012-10-27 02:55:00
10:35 PM,24.8,23.0,93,30.26,10.0,NW,6.9,-,N/A,,Mostly Cloudy,320,2012-10-27 03:35:00
10:55 PM,23.0,19.4,86,30.26,10.0,NW,5.8,-,N/A,,Partly Cloudy,310,2012-10-27 03:55:00
11:15 PM,26.6,21.2,80,30.26,10.0,WNW,5.8,-,N/A,,Mostly Cloudy,290,2012-10-27 04:15:00
11:35 PM,24.8,21.2,86,30.26,10.0,WNW,5.8,-,N/A,,Overcast,300,2012-10-27 04:35:00
11:55 PM,23.0,19.4,86,30.25,10.0,NW,6.9,-,N/A,,Mostly Cloudy,310,2012-10-27 04:55:00